sensor_id;sensor_type;location;lat;lon;timestamp;pressure;altitude;pressure_sealevel;temperature;humidity
818;BME280;391;51.052;6.954;2023-01-25T00:00:36;102985.72;;;3.43;77.74
818;BME280;391;51.052;6.954;2023-01-25T00:02:40;102982.31;;;3.53;78.25
818;BME280;391;51.052;6.954;2023-01-25T00:04:43;102979.53;;;3.60;77.87
818;BME280;391;51.052;6.954;2023-01-25T00:06:47;102977.25;;;3.63;76.80
818;BME280;391;51.052;6.954;2023-01-25T00:08:51;102987.84;;;3.66;77.28
818;BME280;391;51.052;6.954;2023-01-25T00:10:54;102981.31;;;3.69;77.65
818;BME280;391;51.052;6.954;2023-01-25T00:13:01;102980.03;;;3.56;77.56
818;BME280;391;51.052;6.954;2023-01-25T00:15:05;102975.16;;;3.59;77.47
818;BME280;391;51.052;6.954;2023-01-25T00:17:10;102973.41;;;3.68;77.42
818;BME280;391;51.052;6.954;2023-01-25T00:19:13;102971.38;;;3.74;77.71
818;BME280;391;51.052;6.954;2023-01-25T00:21:18;102966.66;;;3.79;77.92
818;BME280;391;51.052;6.954;2023-01-25T00:23:22;102973.00;;;3.82;77.05
818;BME280;391;51.052;6.954;2023-01-25T00:25:25;102967.22;;;3.85;77.12
818;BME280;391;51.052;6.954;2023-01-25T00:27:29;102964.00;;;3.87;77.52
818;BME280;391;51.052;6.954;2023-01-25T00:29:34;102962.97;;;3.85;77.20
818;BME280;391;51.052;6.954;2023-01-25T00:31:43;102962.97;;;3.85;77.12
818;BME280;391;51.052;6.954;2023-01-25T00:33:51;102956.91;;;3.85;76.78
818;BME280;391;51.052;6.954;2023-01-25T00:36:00;102946.41;;;3.83;76.46
818;BME280;391;51.052;6.954;2023-01-25T00:38:23;102953.41;;;3.84;77.01
818;BME280;391;51.052;6.954;2023-01-25T00:40:29;102954.72;;;3.70;77.21
818;BME280;391;51.052;6.954;2023-01-25T00:42:33;102954.22;;;3.56;76.65
818;BME280;391;51.052;6.954;2023-01-25T00:44:38;102841.38;;;2.70;77.41
818;BME280;391;51.052;6.954;2023-01-25T00:46:43;102944.91;;;3.20;77.78
818;BME280;391;51.052;6.954;2023-01-25T00:48:46;102943.88;;;3.10;78.35
818;BME280;391;51.052;6.954;2023-01-25T00:50:50;102942.94;;;3.18;78.53
818;BME280;391;51.052;6.954;2023-01-25T00:52:53;102937.38;;;3.32;78.24
818;BME280;391;51.052;6.954;2023-01-25T00:54:57;102936.72;;;3.43;78.31
818;BME280;391;51.052;6.954;2023-01-25T00:57:00;102823.53;;;2.90;78.10
818;BME280;391;51.052;6.954;2023-01-25T00:59:04;102931.03;;;3.56;78.40
818;BME280;391;51.052;6.954;2023-01-25T01:01:10;102931.47;;;3.60;78.16
818;BME280;391;51.052;6.954;2023-01-25T01:03:15;102925.94;;;3.66;78.07
818;BME280;391;51.052;6.954;2023-01-25T01:05:20;102918.75;;;3.72;78.01
818;BME280;391;51.052;6.954;2023-01-25T01:07:23;102921.47;;;3.73;77.66
818;BME280;391;51.052;6.954;2023-01-25T01:09:27;102926.41;;;3.81;77.69
818;BME280;391;51.052;6.954;2023-01-25T01:11:32;102933.41;;;3.82;77.79
818;BME280;391;51.052;6.954;2023-01-25T01:13:36;102927.59;;;3.84;77.73
818;BME280;391;51.052;6.954;2023-01-25T01:15:39;102922.16;;;3.81;77.95
818;BME280;391;51.052;6.954;2023-01-25T01:17:44;102926.41;;;3.81;77.80
818;BME280;391;51.052;6.954;2023-01-25T01:19:48;102929.91;;;3.62;78.30
818;BME280;391;51.052;6.954;2023-01-25T01:21:51;102919.66;;;3.54;78.22
818;BME280;391;51.052;6.954;2023-01-25T01:23:56;102916.50;;;3.48;77.92
818;BME280;391;51.052;6.954;2023-01-25T01:26:00;102924.94;;;3.37;78.77
818;BME280;391;51.052;6.954;2023-01-25T01:28:04;102928.63;;;3.30;77.97
818;BME280;391;51.052;6.954;2023-01-25T01:30:08;102923.53;;;3.22;78.79
818;BME280;391;51.052;6.954;2023-01-25T01:32:12;102930.19;;;3.19;78.46
818;BME280;391;51.052;6.954;2023-01-25T01:34:18;102928.69;;;3.22;78.83
818;BME280;391;51.052;6.954;2023-01-25T01:36:23;102924.03;;;3.36;79.35
818;BME280;391;51.052;6.954;2023-01-25T01:38:27;102931.97;;;3.48;79.07
818;BME280;391;51.052;6.954;2023-01-25T01:40:31;102931.03;;;3.56;79.10
818;BME280;391;51.052;6.954;2023-01-25T01:42:55;102932.75;;;3.47;79.01
818;BME280;391;51.052;6.954;2023-01-25T01:44:58;102924.78;;;3.35;79.34
818;BME280;391;51.052;6.954;2023-01-25T01:47:02;102925.00;;;3.28;79.10
818;BME280;391;51.052;6.954;2023-01-25T01:49:11;102897.19;;;3.15;80.09
818;BME280;391;51.052;6.954;2023-01-25T01:51:21;102931.75;;;3.36;79.50
818;BME280;391;51.052;6.954;2023-01-25T01:53:27;102939.97;;;3.32;78.67
818;BME280;391;51.052;6.954;2023-01-25T01:55:32;102941.66;;;3.32;79.07
818;BME280;391;51.052;6.954;2023-01-25T02:01:03;102936.78;;;3.35;79.48
818;BME280;391;51.052;6.954;2023-01-25T02:03:09;102921.41;;;3.17;79.73
818;BME280;391;51.052;6.954;2023-01-25T02:05:16;102927.03;;;3.13;79.96
818;BME280;391;51.052;6.954;2023-01-25T02:07:29;102919.00;;;3.19;79.88
818;BME280;391;51.052;6.954;2023-01-25T02:09:36;102824.38;;;2.72;79.88
818;BME280;391;51.052;6.954;2023-01-25T02:11:40;102814.91;;;2.81;79.36
818;BME280;391;51.052;6.954;2023-01-25T02:13:44;102920.16;;;3.50;80.25
818;BME280;391;51.052;6.954;2023-01-25T02:15:50;102918.78;;;3.45;79.56
818;BME280;391;51.052;6.954;2023-01-25T02:17:57;102919.03;;;3.38;79.37
818;BME280;391;51.052;6.954;2023-01-25T02:20:06;102923.81;;;3.25;79.81
818;BME280;391;51.052;6.954;2023-01-25T02:22:12;102913.53;;;3.16;80.86
818;BME280;391;51.052;6.954;2023-01-25T02:24:22;102916.75;;;3.32;80.09
818;BME280;391;51.052;6.954;2023-01-25T02:26:32;102910.66;;;3.40;80.68
818;BME280;391;51.052;6.954;2023-01-25T02:28:39;102918.88;;;3.36;80.63
818;BME280;391;51.052;6.954;2023-01-25T02:30:44;102907.50;;;3.15;80.31
818;BME280;391;51.052;6.954;2023-01-25T02:32:50;102911.75;;;3.06;80.59
818;BME280;391;51.052;6.954;2023-01-25T02:34:54;102901.84;;;2.92;81.21
818;BME280;391;51.052;6.954;2023-01-25T02:36:57;102909.72;;;2.94;81.41
818;BME280;391;51.052;6.954;2023-01-25T02:39:03;102906.25;;;2.93;81.72
818;BME280;391;51.052;6.954;2023-01-25T02:41:10;102900.00;;;3.00;81.04
818;BME280;391;51.052;6.954;2023-01-25T02:43:18;102894.69;;;2.98;81.49
818;BME280;391;51.052;6.954;2023-01-25T02:45:26;102895.59;;;2.99;81.27
818;BME280;391;51.052;6.954;2023-01-25T02:47:31;102893.50;;;2.95;81.21
818;BME280;391;51.052;6.954;2023-01-25T02:49:36;102898.31;;;3.00;81.18
818;BME280;391;51.052;6.954;2023-01-25T02:51:43;102896.00;;;3.03;81.63
818;BME280;391;51.052;6.954;2023-01-25T02:53:48;102894.41;;;2.95;81.86
818;BME280;391;51.052;6.954;2023-01-25T02:55:51;102887.13;;;3.00;81.84
818;BME280;391;51.052;6.954;2023-01-25T02:57:55;102893.44;;;3.03;81.82
818;BME280;391;51.052;6.954;2023-01-25T03:00:00;102900.59;;;2.97;82.52
818;BME280;391;51.052;6.954;2023-01-25T03:02:03;102900.41;;;3.04;81.85
818;BME280;391;51.052;6.954;2023-01-25T03:04:07;102899.25;;;3.19;82.32
818;BME280;391;51.052;6.954;2023-01-25T03:06:11;102892.53;;;3.30;82.33
818;BME280;391;51.052;6.954;2023-01-25T03:08:16;102813.81;;;2.88;81.81
818;BME280;391;51.052;6.954;2023-01-25T03:10:22;102891.06;;;3.42;81.25
818;BME280;391;51.052;6.954;2023-01-25T03:12:27;102890.31;;;3.43;81.44
818;BME280;391;51.052;6.954;2023-01-25T03:14:30;102884.59;;;3.37;81.33
818;BME280;391;51.052;6.954;2023-01-25T03:16:35;102887.72;;;3.25;81.01
818;BME280;391;51.052;6.954;2023-01-25T03:18:41;102891.53;;;3.19;81.29
818;BME280;391;51.052;6.954;2023-01-25T03:20:45;102886.38;;;3.19;82.17
818;BME280;391;51.052;6.954;2023-01-25T03:22:49;102887.44;;;3.22;81.57
818;BME280;391;51.052;6.954;2023-01-25T03:24:52;102889.66;;;3.27;81.50
818;BME280;391;51.052;6.954;2023-01-25T03:26:56;102891.81;;;3.22;81.74
818;BME280;391;51.052;6.954;2023-01-25T03:29:24;102898.13;;;3.07;82.10
818;BME280;391;51.052;6.954;2023-01-25T03:31:28;102889.47;;;3.07;81.93
818;BME280;391;51.052;6.954;2023-01-25T03:33:33;102896.19;;;3.05;82.28
818;BME280;391;51.052;6.954;2023-01-25T03:35:37;102895.44;;;2.97;82.05
818;BME280;391;51.052;6.954;2023-01-25T03:37:41;102895.88;;;3.02;82.24
818;BME280;391;51.052;6.954;2023-01-25T03:39:45;102861.28;;;2.81;82.21
818;BME280;391;51.052;6.954;2023-01-25T03:41:49;102888.06;;;2.92;82.18
818;BME280;391;51.052;6.954;2023-01-25T03:43:52;102888.50;;;2.96;82.58
818;BME280;391;51.052;6.954;2023-01-25T03:45:58;102887.31;;;2.93;82.50
818;BME280;391;51.052;6.954;2023-01-25T03:48:04;102763.34;;;2.17;82.40
818;BME280;391;51.052;6.954;2023-01-25T03:50:10;102896.59;;;2.82;83.42
818;BME280;391;51.052;6.954;2023-01-25T03:52:15;102878.44;;;2.81;83.01
818;BME280;391;51.052;6.954;2023-01-25T03:54:18;102882.16;;;2.93;82.81
818;BME280;391;51.052;6.954;2023-01-25T03:56:22;102878.03;;;2.95;83.33
818;BME280;391;51.052;6.954;2023-01-25T03:58:36;102892.94;;;2.89;83.19
818;BME280;391;51.052;6.954;2023-01-25T04:00:42;102873.22;;;2.89;82.98
818;BME280;391;51.052;6.954;2023-01-25T04:02:47;102864.75;;;2.90;83.14
818;BME280;391;51.052;6.954;2023-01-25T04:04:52;102864.81;;;3.00;83.08
818;BME280;391;51.052;6.954;2023-01-25T04:06:58;102869.09;;;3.00;82.94
818;BME280;391;51.052;6.954;2023-01-25T04:09:04;102864.22;;;3.03;82.97
818;BME280;391;51.052;6.954;2023-01-25T04:11:13;102863.63;;;2.97;83.46
818;BME280;391;51.052;6.954;2023-01-25T04:13:20;102858.97;;;2.93;83.59
818;BME280;391;51.052;6.954;2023-01-25T04:15:24;102855.47;;;2.92;83.38
818;BME280;391;51.052;6.954;2023-01-25T04:17:30;102853.66;;;2.91;83.48
818;BME280;391;51.052;6.954;2023-01-25T04:19:36;102839.13;;;2.92;83.08
818;BME280;391;51.052;6.954;2023-01-25T04:21:44;102840.78;;;2.91;83.61
818;BME280;391;51.052;6.954;2023-01-25T04:23:49;102839.28;;;2.93;84.02
818;BME280;391;51.052;6.954;2023-01-25T04:25:53;102832.88;;;2.98;83.31
818;BME280;391;51.052;6.954;2023-01-25T04:27:57;102829.00;;;3.12;83.17
818;BME280;391;51.052;6.954;2023-01-25T04:30:01;102829.19;;;3.05;83.36
818;BME280;391;51.052;6.954;2023-01-25T04:32:08;102829.38;;;2.98;83.62
818;BME280;391;51.052;6.954;2023-01-25T04:34:12;102826.56;;;2.86;84.04
818;BME280;391;51.052;6.954;2023-01-25T04:36:15;102829.81;;;2.75;84.00
818;BME280;391;51.052;6.954;2023-01-25T04:38:19;102832.81;;;2.80;84.48
818;BME280;391;51.052;6.954;2023-01-25T04:40:26;102823.63;;;2.73;84.49
818;BME280;391;51.052;6.954;2023-01-25T04:42:30;102739.22;;;2.25;84.40
818;BME280;391;51.052;6.954;2023-01-25T04:44:33;102822.59;;;2.62;84.63
818;BME280;391;51.052;6.954;2023-01-25T04:46:37;102806.88;;;2.59;84.90
818;BME280;391;51.052;6.954;2023-01-25T04:48:41;102817.47;;;2.62;84.82
818;BME280;391;51.052;6.954;2023-01-25T04:50:45;102817.97;;;2.50;85.01
818;BME280;391;51.052;6.954;2023-01-25T04:52:49;102812.38;;;2.54;85.14
818;BME280;391;51.052;6.954;2023-01-25T04:54:52;102803.59;;;2.52;84.91
818;BME280;391;51.052;6.954;2023-01-25T04:56:57;102819.22;;;2.72;85.26
818;BME280;391;51.052;6.954;2023-01-25T04:59:01;102821.22;;;2.66;84.50
818;BME280;391;51.052;6.954;2023-01-25T05:01:06;102821.97;;;2.65;84.96
818;BME280;391;51.052;6.954;2023-01-25T05:03:10;102812.88;;;2.68;85.14
818;BME280;391;51.052;6.954;2023-01-25T05:05:13;102810.22;;;2.58;85.03
818;BME280;391;51.052;6.954;2023-01-25T05:07:20;102814.78;;;2.52;85.21
818;BME280;391;51.052;6.954;2023-01-25T05:09:24;102813.63;;;2.49;85.49
818;BME280;391;51.052;6.954;2023-01-25T05:11:28;102801.78;;;2.51;85.12
818;BME280;391;51.052;6.954;2023-01-25T05:13:56;102803.44;;;2.50;85.23
818;BME280;391;51.052;6.954;2023-01-25T05:16:06;102802.19;;;2.55;85.30
818;BME280;391;51.052;6.954;2023-01-25T05:18:11;102804.00;;;2.56;85.59
818;BME280;391;51.052;6.954;2023-01-25T05:20:15;102802.53;;;2.50;85.70
818;BME280;391;51.052;6.954;2023-01-25T05:22:19;102797.66;;;2.53;85.73
818;BME280;391;51.052;6.954;2023-01-25T05:24:27;102687.03;;;1.90;85.62
818;BME280;391;51.052;6.954;2023-01-25T05:26:32;102795.78;;;2.42;85.94
818;BME280;391;51.052;6.954;2023-01-25T05:28:54;102795.50;;;2.39;85.83
818;BME280;391;51.052;6.954;2023-01-25T05:31:13;102788.50;;;2.38;86.22
818;BME280;391;51.052;6.954;2023-01-25T05:33:17;102714.25;;;1.96;86.10
818;BME280;391;51.052;6.954;2023-01-25T05:35:21;102785.94;;;2.38;86.42
818;BME280;391;51.052;6.954;2023-01-25T05:37:28;102790.63;;;2.42;86.35
818;BME280;391;51.052;6.954;2023-01-25T05:39:37;102787.66;;;2.56;86.18
818;BME280;391;51.052;6.954;2023-01-25T05:41:40;102787.69;;;2.75;85.82
818;BME280;391;51.052;6.954;2023-01-25T05:43:46;102787.97;;;2.78;85.70
818;BME280;391;51.052;6.954;2023-01-25T05:45:52;102790.03;;;2.90;85.81
818;BME280;391;51.052;6.954;2023-01-25T05:47:58;102798.63;;;2.99;85.96
818;BME280;391;51.052;6.954;2023-01-25T05:50:02;102796.13;;;3.09;85.06
818;BME280;391;51.052;6.954;2023-01-25T05:52:27;102789.69;;;3.14;85.42
818;BME280;391;51.052;6.954;2023-01-25T05:54:30;102784.91;;;3.09;84.79
818;BME280;391;51.052;6.954;2023-01-25T05:56:38;102786.91;;;3.03;85.09
818;BME280;391;51.052;6.954;2023-01-25T05:58:42;102784.91;;;3.09;85.31
818;BME280;391;51.052;6.954;2023-01-25T06:00:45;102793.53;;;3.09;84.80
818;BME280;391;51.052;6.954;2023-01-25T06:03:02;102790.66;;;3.06;84.52
818;BME280;391;51.052;6.954;2023-01-25T06:05:09;102781.25;;;3.07;84.37
818;BME280;391;51.052;6.954;2023-01-25T06:07:13;102786.47;;;2.98;84.47
818;BME280;391;51.052;6.954;2023-01-25T06:09:17;102796.16;;;3.01;84.67
818;BME280;391;51.052;6.954;2023-01-25T06:11:22;102789.97;;;2.99;84.36
818;BME280;391;51.052;6.954;2023-01-25T06:13:28;102790.44;;;2.95;85.03
818;BME280;391;51.052;6.954;2023-01-25T06:15:32;102783.41;;;2.84;84.67
818;BME280;391;51.052;6.954;2023-01-25T06:17:55;102777.63;;;2.86;84.93
818;BME280;391;51.052;6.954;2023-01-25T06:20:09;102778.19;;;2.74;85.35
818;BME280;391;51.052;6.954;2023-01-25T06:22:29;102769.25;;;2.70;85.24
818;BME280;391;51.052;6.954;2023-01-25T06:24:33;102694.03;;;2.37;84.74
818;BME280;391;51.052;6.954;2023-01-25T06:26:36;102779.44;;;2.87;85.30
818;BME280;391;51.052;6.954;2023-01-25T06:28:40;102768.28;;;2.97;85.39
818;BME280;391;51.052;6.954;2023-01-25T06:30:43;102764.56;;;2.93;84.99
818;BME280;391;51.052;6.954;2023-01-25T06:32:47;102773.81;;;2.91;84.54
818;BME280;391;51.052;6.954;2023-01-25T06:34:51;102775.19;;;2.88;84.97
818;BME280;391;51.052;6.954;2023-01-25T06:36:59;102779.44;;;2.87;85.21
818;BME280;391;51.052;6.954;2023-01-25T06:39:03;102772.84;;;2.81;85.01
818;BME280;391;51.052;6.954;2023-01-25T06:41:09;102777.09;;;2.72;84.97
818;BME280;391;51.052;6.954;2023-01-25T06:43:13;102758.59;;;2.76;85.10
818;BME280;391;51.052;6.954;2023-01-25T06:45:16;102770.53;;;2.84;85.30
818;BME280;391;51.052;6.954;2023-01-25T06:47:20;102772.84;;;2.99;85.39
818;BME280;391;51.052;6.954;2023-01-25T06:49:24;102774.78;;;3.02;84.52
818;BME280;391;51.052;6.954;2023-01-25T06:51:28;102780.66;;;3.09;84.76
818;BME280;391;51.052;6.954;2023-01-25T06:53:34;102780.16;;;3.13;84.83
818;BME280;391;51.052;6.954;2023-01-25T06:55:38;102776.81;;;3.14;85.00
818;BME280;391;51.052;6.954;2023-01-25T06:57:41;102783.00;;;3.16;83.92
818;BME280;391;51.052;6.954;2023-01-25T06:59:45;102785.56;;;3.16;83.97
818;BME280;391;51.052;6.954;2023-01-25T07:01:48;102777.25;;;3.19;84.49
818;BME280;391;51.052;6.954;2023-01-25T07:03:54;102778.59;;;4.10;93.33
818;BME280;391;51.052;6.954;2023-01-25T07:05:58;102775.13;;;5.41;96.59
818;BME280;391;51.052;6.954;2023-01-25T07:08:01;102788.22;;;6.06;93.30
818;BME280;391;51.052;6.954;2023-01-25T07:10:08;102786.97;;;5.59;89.32
818;BME280;391;51.052;6.954;2023-01-25T07:12:11;102781.88;;;5.19;88.46
818;BME280;391;51.052;6.954;2023-01-25T07:14:15;102786.41;;;4.61;87.72
818;BME280;391;51.052;6.954;2023-01-25T07:16:19;102790.16;;;4.05;87.51
818;BME280;391;51.052;6.954;2023-01-25T07:18:23;102700.06;;;3.20;87.78
818;BME280;391;51.052;6.954;2023-01-25T07:20:27;102783.28;;;3.57;86.53
818;BME280;391;51.052;6.954;2023-01-25T07:22:30;102776.53;;;3.30;86.44
818;BME280;391;51.052;6.954;2023-01-25T07:24:33;102783.06;;;3.27;86.24
818;BME280;391;51.052;6.954;2023-01-25T07:26:38;102784.06;;;3.37;87.43
818;BME280;391;51.052;6.954;2023-01-25T07:28:42;102785.63;;;3.45;87.12
818;BME280;391;51.052;6.954;2023-01-25T07:30:45;102785.00;;;3.48;85.98
818;BME280;391;51.052;6.954;2023-01-25T07:32:50;102778.13;;;3.38;85.69
818;BME280;391;51.052;6.954;2023-01-25T07:34:53;102779.22;;;3.13;85.91
818;BME280;391;51.052;6.954;2023-01-25T07:36:57;102691.19;;;2.52;85.38
818;BME280;391;51.052;6.954;2023-01-25T07:39:00;102772.00;;;2.90;86.17
818;BME280;391;51.052;6.954;2023-01-25T07:41:04;102780.84;;;3.02;86.02
818;BME280;391;51.052;6.954;2023-01-25T07:43:09;102779.59;;;3.07;85.87
818;BME280;391;51.052;6.954;2023-01-25T07:45:13;102783.63;;;3.14;85.62
818;BME280;391;51.052;6.954;2023-01-25T07:47:16;102771.03;;;3.17;86.15
818;BME280;391;51.052;6.954;2023-01-25T07:49:20;102776.81;;;3.14;85.11
818;BME280;391;51.052;6.954;2023-01-25T07:51:24;102779.59;;;3.07;85.70
818;BME280;391;51.052;6.954;2023-01-25T07:53:29;102777.22;;;3.00;85.01
818;BME280;391;51.052;6.954;2023-01-25T07:55:33;102779.03;;;3.01;85.06
818;BME280;391;51.052;6.954;2023-01-25T07:57:36;102778.84;;;3.08;85.60
818;BME280;391;51.052;6.954;2023-01-25T07:59:41;102779.88;;;3.10;85.41
818;BME280;391;51.052;6.954;2023-01-25T08:01:44;102768.06;;;3.12;85.75
818;BME280;391;51.052;6.954;2023-01-25T08:03:48;102763.94;;;3.14;85.48
818;BME280;391;51.052;6.954;2023-01-25T08:05:52;102759.25;;;3.10;85.32
818;BME280;391;51.052;6.954;2023-01-25T08:07:56;102761.47;;;3.16;84.83
818;BME280;391;51.052;6.954;2023-01-25T08:09:59;102765.50;;;3.22;84.53
818;BME280;391;51.052;6.954;2023-01-25T08:12:03;102763.53;;;3.29;85.17
818;BME280;391;51.052;6.954;2023-01-25T08:14:09;102767.22;;;3.22;84.25
818;BME280;391;51.052;6.954;2023-01-25T08:16:16;102768.28;;;2.97;84.62
818;BME280;391;51.052;6.954;2023-01-25T08:18:20;102768.28;;;2.78;85.39
818;BME280;391;51.052;6.954;2023-01-25T08:20:23;102764.75;;;2.67;85.19
818;BME280;391;51.052;6.954;2023-01-25T08:22:27;102774.03;;;2.57;85.69
818;BME280;391;51.052;6.954;2023-01-25T08:24:30;102773.75;;;2.54;85.77
818;BME280;391;51.052;6.954;2023-01-25T08:26:35;102772.25;;;2.47;85.94
818;BME280;391;51.052;6.954;2023-01-25T08:28:39;102773.31;;;2.49;86.19
818;BME280;391;51.052;6.954;2023-01-25T08:30:42;102763.09;;;2.59;85.90
818;BME280;391;51.052;6.954;2023-01-25T08:33:00;102767.84;;;2.55;85.80
818;BME280;391;51.052;6.954;2023-01-25T08:35:05;102761.16;;;2.57;86.33
818;BME280;391;51.052;6.954;2023-01-25T08:37:09;102751.69;;;2.66;85.96
818;BME280;391;51.052;6.954;2023-01-25T08:39:12;102760.34;;;2.85;85.70
818;BME280;391;51.052;6.954;2023-01-25T08:41:17;102759.81;;;2.79;85.92
818;BME280;391;51.052;6.954;2023-01-25T08:43:21;102754.56;;;2.69;86.33
818;BME280;391;51.052;6.954;2023-01-25T08:45:24;102755.03;;;2.65;85.95
818;BME280;391;51.052;6.954;2023-01-25T08:47:28;102757.28;;;2.71;85.90
818;BME280;391;51.052;6.954;2023-01-25T08:49:33;102759.31;;;2.83;86.00
818;BME280;391;51.052;6.954;2023-01-25T08:51:37;102755.66;;;2.90;85.91
818;BME280;391;51.052;6.954;2023-01-25T08:53:41;102748.31;;;2.94;85.86
818;BME280;391;51.052;6.954;2023-01-25T08:55:45;102743.44;;;2.97;85.97
818;BME280;391;51.052;6.954;2023-01-25T08:57:48;102752.56;;;2.94;85.46
818;BME280;391;51.052;6.954;2023-01-25T08:59:51;102758.81;;;2.87;85.84
818;BME280;391;51.052;6.954;2023-01-25T09:01:55;102751.88;;;2.86;85.76
818;BME280;391;51.052;6.954;2023-01-25T09:03:58;102748.75;;;2.99;85.65
818;BME280;391;51.052;6.954;2023-01-25T09:06:04;102748.66;;;3.07;85.67
818;BME280;391;51.052;6.954;2023-01-25T09:08:09;102747.91;;;3.08;85.53
818;BME280;391;51.052;6.954;2023-01-25T09:10:12;102748.47;;;3.14;85.35
818;BME280;391;51.052;6.954;2023-01-25T09:12:16;102734.94;;;3.17;85.66
818;BME280;391;51.052;6.954;2023-01-25T09:14:19;102746.50;;;3.31;85.84
818;BME280;391;51.052;6.954;2023-01-25T09:16:24;102741.84;;;3.27;85.28
818;BME280;391;51.052;6.954;2023-01-25T09:18:31;102747.75;;;3.26;85.90
818;BME280;391;51.052;6.954;2023-01-25T09:20:37;102752.22;;;3.37;85.49
818;BME280;391;51.052;6.954;2023-01-25T09:22:43;102741.91;;;3.37;84.70
818;BME280;391;51.052;6.954;2023-01-25T09:24:46;102744.84;;;3.12;84.62
818;BME280;391;51.052;6.954;2023-01-25T09:26:53;102740.50;;;2.84;84.97
818;BME280;391;51.052;6.954;2023-01-25T09:29:00;102734.44;;;2.65;85.77
818;BME280;391;51.052;6.954;2023-01-25T09:31:05;102732.69;;;2.55;85.55
818;BME280;391;51.052;6.954;2023-01-25T09:33:39;102726.94;;;2.58;85.70
818;BME280;391;51.052;6.954;2023-01-25T09:35:46;102722.38;;;2.55;86.22
818;BME280;391;51.052;6.954;2023-01-25T09:37:51;102722.72;;;2.50;85.82
818;BME280;391;51.052;6.954;2023-01-25T09:39:55;102716.06;;;2.52;86.35
818;BME280;391;51.052;6.954;2023-01-25T09:42:19;102648.97;;;2.32;86.13
818;BME280;391;51.052;6.954;2023-01-25T09:44:36;102718.78;;;2.91;85.71
818;BME280;391;51.052;6.954;2023-01-25T09:46:44;102722.91;;;3.07;85.71
818;BME280;391;51.052;6.954;2023-01-25T09:48:56;102710.50;;;3.03;85.58
818;BME280;391;51.052;6.954;2023-01-25T09:51:19;102705.25;;;2.83;85.73
818;BME280;391;51.052;6.954;2023-01-25T09:53:30;102641.81;;;2.38;86.54
818;BME280;391;51.052;6.954;2023-01-25T09:55:36;102699.09;;;2.73;86.15
818;BME280;391;51.052;6.954;2023-01-25T09:57:41;102701.59;;;2.62;86.52
818;BME280;391;51.052;6.954;2023-01-25T09:59:47;102696.50;;;2.54;86.67
818;BME280;391;51.052;6.954;2023-01-25T10:01:54;102695.59;;;2.53;86.72
818;BME280;391;51.052;6.954;2023-01-25T10:04:01;102695.59;;;2.53;86.95
818;BME280;391;51.052;6.954;2023-01-25T10:06:09;102701.13;;;2.66;87.06
818;BME280;391;51.052;6.954;2023-01-25T10:08:20;102695.69;;;2.63;86.27
818;BME280;391;51.052;6.954;2023-01-25T10:10:33;102695.81;;;2.65;86.66
818;BME280;391;51.052;6.954;2023-01-25T10:12:38;102695.13;;;2.76;86.81
818;BME280;391;51.052;6.954;2023-01-25T10:14:41;102687.59;;;2.69;86.19
818;BME280;391;51.052;6.954;2023-01-25T10:16:54;102689.81;;;2.75;86.53
818;BME280;391;51.052;6.954;2023-01-25T10:19:13;102681.78;;;2.80;86.32
818;BME280;391;51.052;6.954;2023-01-25T10:21:21;102690.53;;;2.82;86.61
818;BME280;391;51.052;6.954;2023-01-25T10:23:52;102680.78;;;2.70;86.88
818;BME280;391;51.052;6.954;2023-01-25T10:26:08;102680.72;;;2.59;86.87
818;BME280;391;51.052;6.954;2023-01-25T10:28:31;102672.72;;;2.56;87.22
818;BME280;391;51.052;6.954;2023-01-25T10:30:40;102670.41;;;2.59;86.73
818;BME280;391;51.052;6.954;2023-01-25T10:32:47;102674.81;;;2.79;87.01
818;BME280;391;51.052;6.954;2023-01-25T10:35:04;102677.47;;;2.71;87.11
818;BME280;391;51.052;6.954;2023-01-25T10:37:22;102670.66;;;2.71;86.67
818;BME280;391;51.052;6.954;2023-01-25T10:39:27;102662.84;;;2.61;86.79
818;BME280;391;51.052;6.954;2023-01-25T10:41:36;102548.47;;;2.11;87.32
818;BME280;391;51.052;6.954;2023-01-25T10:43:42;102660.63;;;2.74;87.35
818;BME280;391;51.052;6.954;2023-01-25T10:45:46;102656.16;;;2.82;86.86
818;BME280;391;51.052;6.954;2023-01-25T10:47:53;102658.94;;;2.93;87.31
818;BME280;391;51.052;6.954;2023-01-25T10:50:02;102656.97;;;2.91;86.43
818;BME280;391;51.052;6.954;2023-01-25T10:52:14;102640.56;;;2.80;86.38
818;BME280;391;51.052;6.954;2023-01-25T10:54:21;102643.72;;;2.67;86.66
818;BME280;391;51.052;6.954;2023-01-25T10:56:25;102637.72;;;2.58;86.48
818;BME280;391;51.052;6.954;2023-01-25T10:58:34;102639.78;;;2.62;87.30
818;BME280;391;51.052;6.954;2023-01-25T11:00:39;102635.19;;;2.68;87.28
818;BME280;391;51.052;6.954;2023-01-25T11:02:44;102632.34;;;2.65;86.64
818;BME280;391;51.052;6.954;2023-01-25T11:04:48;102641.72;;;2.65;86.99
818;BME280;391;51.052;6.954;2023-01-25T11:06:51;102633.34;;;2.57;86.84
818;BME280;391;51.052;6.954;2023-01-25T11:08:55;102623.94;;;2.58;86.92
818;BME280;391;51.052;6.954;2023-01-25T11:10:59;102627.91;;;2.54;87.28
818;BME280;391;51.052;6.954;2023-01-25T11:13:19;102626.72;;;2.51;87.34
818;BME280;391;51.052;6.954;2023-01-25T11:15:25;102614.25;;;2.55;87.37
818;BME280;391;51.052;6.954;2023-01-25T11:17:30;102621.22;;;2.56;87.45
818;BME280;391;51.052;6.954;2023-01-25T11:19:34;102621.56;;;2.51;87.37
818;BME280;391;51.052;6.954;2023-01-25T11:21:50;102623.53;;;2.53;87.43
818;BME280;391;51.052;6.954;2023-01-25T11:23:59;102513.81;;;1.89;87.35
818;BME280;391;51.052;6.954;2023-01-25T11:26:11;102615.59;;;2.42;87.59
818;BME280;391;51.052;6.954;2023-01-25T11:28:20;102610.72;;;2.45;88.14
818;BME280;391;51.052;6.954;2023-01-25T11:30:25;102606.78;;;2.48;88.13
818;BME280;391;51.052;6.954;2023-01-25T11:32:28;102609.53;;;2.60;87.83
818;BME280;391;51.052;6.954;2023-01-25T11:34:32;102603.75;;;2.62;87.18
818;BME280;391;51.052;6.954;2023-01-25T11:36:41;102586.72;;;2.54;87.86
818;BME280;391;51.052;6.954;2023-01-25T11:39:00;102583.72;;;2.50;87.84
818;BME280;391;51.052;6.954;2023-01-25T11:41:11;102582.59;;;2.56;87.74
818;BME280;391;51.052;6.954;2023-01-25T11:43:33;102579.00;;;2.54;87.94
818;BME280;391;51.052;6.954;2023-01-25T11:46:01;102571.56;;;2.57;87.60
818;BME280;391;51.052;6.954;2023-01-25T11:48:20;102570.75;;;2.77;87.91
818;BME280;391;51.052;6.954;2023-01-25T11:50:32;102564.97;;;2.80;87.13